Time;durP1;ratioP1;P1;durP2;ratioP2;P2;SDS_P1;SDS_P2;PMS_P1;PMS_P2;Temp;Humidity;BMP_temperature;BMP_pressure;BME280_temperature;BME280_humidity;BME280_pressure;Samples;Min_cycle;Max_cycle;Signal;HPM_P1;HPM_P2
2024/01/06 00:00:16;;;;;;;11.07;7.70;;;;;;;;;;5044344;28;20173;-71
2024/01/06 00:02:43;;;;;;;10.68;6.75;;;;;;;;;;5045168;28;20053;-71
2024/01/06 00:05:09;;;;;;;9.65;7.05;;;;;;;;;;5044535;28;20053;-72
2024/01/06 00:07:36;;;;;;;10.30;6.95;;;;;;;;;;5044420;28;20053;-71
2024/01/06 00:10:03;;;;;;;8.68;5.90;;;;;;;;;;5043162;28;20501;-71
2024/01/06 00:12:29;;;;;;;11.45;7.30;;;;;;;;;;5044667;28;20146;-72
2024/01/06 00:14:55;;;;;;;10.15;7.75;;;;;;;;;;5044618;28;20508;-71
2024/01/06 00:17:22;;;;;;;9.80;6.78;;;;;;;;;;5044104;28;20060;-70
2024/01/06 00:19:51;;;;;;;10.15;6.65;;;;;;;;;;5043901;28;20061;-71
2024/01/06 00:22:19;;;;;;;10.70;7.55;;;;;;;;;;5044232;28;20063;-71
2024/01/06 00:24:45;;;;;;;10.32;6.78;;;;;;;;;;5033839;28;20496;-71
2024/01/06 00:27:12;;;;;;;7.18;5.22;;;;;;;;;;5024528;28;20502;-71
2024/01/06 00:29:38;;;;;;;6.82;5.07;;;;;;;;;;5026480;28;20104;-71
2024/01/06 00:32:05;;;;;;;8.52;5.30;;;;;;;;;;5044674;28;20061;-71
2024/01/06 00:34:31;;;;;;;11.20;6.68;;;;;;;;;;5043560;28;20065;-71
2024/01/06 00:36:58;;;;;;;10.23;7.40;;;;;;;;;;5043393;28;20084;-71
2024/01/06 00:39:24;;;;;;;9.93;7.00;;;;;;;;;;5044237;28;20549;-70
2024/01/06 00:41:51;;;;;;;10.00;7.65;;;;;;;;;;5043888;28;20060;-72
2024/01/06 00:44:17;;;;;;;12.05;7.72;;;;;;;;;;5039085;28;20511;-70
2024/01/06 00:46:44;;;;;;;12.20;7.95;;;;;;;;;;5022368;28;20088;-73
2024/01/06 00:49:11;;;;;;;12.23;7.57;;;;;;;;;;5023937;28;20104;-71
2024/01/06 00:51:37;;;;;;;11.57;8.18;;;;;;;;;;5023644;28;20057;-73
2024/01/06 00:54:05;;;;;;;11.02;7.65;;;;;;;;;;5023952;28;20045;-73
2024/01/06 00:56:32;;;;;;;11.07;8.23;;;;;;;;;;5032109;28;20053;-73
2024/01/06 00:58:58;;;;;;;10.30;7.85;;;;;;;;;;5044156;28;20085;-73
2024/01/06 01:01:24;;;;;;;10.10;7.80;;;;;;;;;;5043725;28;20569;-71
2024/01/06 01:03:51;;;;;;;9.57;6.95;;;;;;;;;;5043093;28;20057;-72
2024/01/06 01:06:18;;;;;;;10.77;7.75;;;;;;;;;;5043899;28;20524;-72
2024/01/06 01:08:45;;;;;;;9.90;7.25;;;;;;;;;;5043114;28;20054;-71
2024/01/06 01:11:11;;;;;;;9.02;6.95;;;;;;;;;;5043660;28;20049;-71
2024/01/06 01:13:37;;;;;;;9.88;7.13;;;;;;;;;;5043788;28;20080;-72
2024/01/06 01:16:04;;;;;;;9.60;7.15;;;;;;;;;;5043852;28;20527;-73
2024/01/06 01:18:30;;;;;;;10.40;7.40;;;;;;;;;;5042707;28;20054;-71
2024/01/06 01:20:57;;;;;;;8.48;6.47;;;;;;;;;;5042819;28;20054;-72
2024/01/06 01:23:23;;;;;;;10.43;7.05;;;;;;;;;;5042685;28;20057;-72
2024/01/06 01:25:50;;;;;;;10.80;8.02;;;;;;;;;;5043301;28;20099;-72
2024/01/06 01:28:16;;;;;;;11.68;8.20;;;;;;;;;;5042969;28;20054;-72
2024/01/06 01:30:42;;;;;;;12.38;9.40;;;;;;;;;;5042664;28;20397;-72
2024/01/06 01:33:09;;;;;;;12.48;8.80;;;;;;;;;;5042386;28;20045;-72
2024/01/06 01:35:36;;;;;;;13.27;8.52;;;;;;;;;;5043066;28;20060;-72
2024/01/06 01:38:03;;;;;;;14.02;8.98;;;;;;;;;;5042994;28;20070;-72
2024/01/06 01:40:29;;;;;;;11.57;8.38;;;;;;;;;;5042831;28;20053;-72
2024/01/06 01:42:55;;;;;;;12.38;8.65;;;;;;;;;;5042379;28;20049;-72
2024/01/06 01:45:22;;;;;;;14.48;8.73;;;;;;;;;;5043316;28;20061;-72
2024/01/06 01:47:49;;;;;;;13.25;8.27;;;;;;;;;;5042700;28;20671;-72
2024/01/06 01:50:15;;;;;;;11.90;8.02;;;;;;;;;;5042549;28;20092;-72
2024/01/06 01:52:42;;;;;;;12.68;8.82;;;;;;;;;;5042281;28;20098;-72
2024/01/06 01:55:09;;;;;;;11.90;8.85;;;;;;;;;;5042868;28;20090;-72
2024/01/06 01:57:35;;;;;;;10.77;7.53;;;;;;;;;;5042942;28;20058;-72
2024/01/06 02:00:03;;;;;;;9.70;7.35;;;;;;;;;;5041628;28;20049;-72
2024/01/06 02:02:29;;;;;;;11.27;8.18;;;;;;;;;;5042296;28;20130;-72
2024/01/06 02:04:56;;;;;;;10.10;7.50;;;;;;;;;;5042590;28;20061;-72
2024/01/06 02:07:22;;;;;;;10.25;7.45;;;;;;;;;;5042544;28;20060;-72
2024/01/06 02:09:49;;;;;;;9.20;7.03;;;;;;;;;;5042515;28;20053;-72
2024/01/06 02:12:15;;;;;;;11.25;7.57;;;;;;;;;;5044065;28;20053;-72
2024/01/06 02:14:43;;;;;;;9.70;7.50;;;;;;;;;;5045747;28;20054;-72
2024/01/06 02:17:09;;;;;;;8.15;6.22;;;;;;;;;;5045375;28;20058;-72
2024/01/06 02:19:36;;;;;;;8.70;6.50;;;;;;;;;;5045003;28;20157;-72
2024/01/06 02:22:02;;;;;;;9.18;6.80;;;;;;;;;;5046495;28;20050;-72
2024/01/06 02:24:29;;;;;;;9.13;6.82;;;;;;;;;;5045995;28;20053;-71
2024/01/06 02:26:55;;;;;;;15.35;7.38;;;;;;;;;;5046295;28;20135;-72
2024/01/06 02:29:22;;;;;;;8.50;6.38;;;;;;;;;;5045756;28;20057;-71
2024/01/06 02:31:48;;;;;;;11.50;8.07;;;;;;;;;;5045341;28;20053;-71
2024/01/06 02:34:15;;;;;;;12.35;8.90;;;;;;;;;;5045327;28;20119;-72
2024/01/06 02:36:41;;;;;;;12.15;8.38;;;;;;;;;;5045243;28;20104;-72
2024/01/06 02:39:08;;;;;;;13.88;9.02;;;;;;;;;;5045615;28;20140;-71
2024/01/06 02:41:34;;;;;;;15.93;10.65;;;;;;;;;;5045281;28;20148;-71
2024/01/06 02:44:03;;;;;;;15.13;9.73;;;;;;;;;;5045428;28;20053;-72
2024/01/06 02:46:29;;;;;;;17.10;10.73;;;;;;;;;;5044791;28;20053;-72
2024/01/06 02:48:56;;;;;;;14.60;10.05;;;;;;;;;;5045535;28;20057;-72
2024/01/06 02:51:23;;;;;;;16.23;9.93;;;;;;;;;;5045493;28;20049;-72
2024/01/06 02:53:49;;;;;;;14.70;10.02;;;;;;;;;;5045120;28;20079;-71
2024/01/06 02:56:15;;;;;;;13.70;9.40;;;;;;;;;;5044752;28;20057;-72
2024/01/06 02:58:42;;;;;;;14.27;9.85;;;;;;;;;;5044711;28;20054;-72
2024/01/06 03:01:08;;;;;;;13.55;8.70;;;;;;;;;;5045214;28;20155;-71
2024/01/06 03:03:35;;;;;;;16.10;8.73;;;;;;;;;;5045710;28;20148;-72
2024/01/06 03:06:01;;;;;;;11.70;8.90;;;;;;;;;;5044602;28;20058;-72
2024/01/06 03:08:28;;;;;;;12.63;8.60;;;;;;;;;;5045300;28;20523;-72
2024/01/06 03:10:54;;;;;;;13.05;8.32;;;;;;;;;;5045536;28;20490;-71
2024/01/06 03:13:20;;;;;;;11.38;8.18;;;;;;;;;;5044684;28;20176;-74
2024/01/06 03:15:47;;;;;;;11.35;7.85;;;;;;;;;;5045094;28;20460;-71
2024/01/06 03:18:13;;;;;;;12.00;7.82;;;;;;;;;;5044360;28;20552;-72
2024/01/06 03:20:40;;;;;;;11.55;7.88;;;;;;;;;;5044553;28;20103;-71
2024/01/06 03:23:07;;;;;;;12.85;8.00;;;;;;;;;;5043873;28;20107;-71
2024/01/06 03:25:33;;;;;;;10.93;6.60;;;;;;;;;;5044786;28;20095;-71
2024/01/06 03:27:59;;;;;;;9.40;6.70;;;;;;;;;;5044438;28;20088;-71
2024/01/06 03:30:26;;;;;;;8.90;6.30;;;;;;;;;;5044838;28;20512;-71
2024/01/06 03:32:53;;;;;;;8.60;6.05;;;;;;;;;;5044906;28;20519;-72
2024/01/06 03:35:19;;;;;;;11.27;7.82;;;;;;;;;;5045094;28;20112;-71
2024/01/06 03:37:46;;;;;;;11.65;7.20;;;;;;;;;;5044173;28;20427;-71
2024/01/06 03:40:12;;;;;;;12.50;8.10;;;;;;;;;;5043946;28;20064;-71
2024/01/06 03:42:39;;;;;;;10.93;7.30;;;;;;;;;;5044250;28;20057;-71
2024/01/06 03:45:06;;;;;;;10.88;7.15;;;;;;;;;;5045111;28;20216;-71
2024/01/06 03:47:32;;;;;;;11.70;7.97;;;;;;;;;;5027148;28;20061;-71
2024/01/06 03:49:58;;;;;;;11.93;8.32;;;;;;;;;;5045253;28;20053;-71
2024/01/06 03:52:25;;;;;;;13.40;8.02;;;;;;;;;;5044497;28;20060;-71
2024/01/06 03:54:51;;;;;;;11.63;8.10;;;;;;;;;;5044144;28;20498;-71
2024/01/06 03:57:18;;;;;;;10.75;8.18;;;;;;;;;;5044440;28;20439;-71
2024/01/06 03:59:44;;;;;;;11.40;7.80;;;;;;;;;;5044518;28;20060;-72
2024/01/06 04:02:11;;;;;;;9.85;7.68;;;;;;;;;;5044622;28;20052;-71
2024/01/06 04:04:37;;;;;;;11.60;8.27;;;;;;;;;;5043924;28;20052;-71
2024/01/06 04:07:05;;;;;;;12.57;8.38;;;;;;;;;;5044243;28;20060;-71
2024/01/06 04:09:31;;;;;;;11.02;8.15;;;;;;;;;;5043594;28;20088;-71
2024/01/06 04:11:57;;;;;;;11.27;7.68;;;;;;;;;;5043934;28;20199;-70
2024/01/06 04:14:24;;;;;;;12.15;8.13;;;;;;;;;;5044534;28;20128;-71
2024/01/06 04:16:52;;;;;;;10.23;7.63;;;;;;;;;;5043678;28;20045;-71
2024/01/06 04:19:20;;;;;;;9.90;7.60;;;;;;;;;;5044668;28;20145;-71
2024/01/06 04:21:48;;;;;;;9.52;7.03;;;;;;;;;;5044183;28;20111;-71
2024/01/06 04:24:14;;;;;;;9.75;7.25;;;;;;;;;;5044312;28;20508;-71
2024/01/06 04:26:44;;;;;;;9.90;7.13;;;;;;;;;;5043025;28;20049;-71
2024/01/06 04:29:11;;;;;;;8.15;6.15;;;;;;;;;;5042931;28;20133;-71
2024/01/06 04:31:38;;;;;;;8.43;5.72;;;;;;;;;;5044356;28;20057;-71
2024/01/06 04:34:04;;;;;;;10.43;6.30;;;;;;;;;;5043198;28;20135;-71
2024/01/06 04:36:31;;;;;;;9.65;6.55;;;;;;;;;;5043373;28;20045;-71
2024/01/06 04:38:57;;;;;;;9.77;6.95;;;;;;;;;;5043259;28;20089;-72
2024/01/06 04:41:24;;;;;;;9.38;6.80;;;;;;;;;;5043576;28;20053;-71
2024/01/06 04:43:50;;;;;;;10.95;7.38;;;;;;;;;;5044012;28;20050;-71
2024/01/06 04:46:17;;;;;;;10.10;6.90;;;;;;;;;;5043744;28;20085;-71
2024/01/06 04:48:43;;;;;;;11.20;7.72;;;;;;;;;;5042693;28;20053;-71
2024/01/06 04:51:11;;;;;;;14.13;8.75;;;;;;;;;;5043481;28;20439;-71
2024/01/06 04:53:38;;;;;;;9.85;7.80;;;;;;;;;;5043634;28;20057;-71
2024/01/06 04:56:04;;;;;;;11.63;8.38;;;;;;;;;;5043186;28;20050;-71
2024/01/06 04:58:31;;;;;;;13.68;7.60;;;;;;;;;;5043061;28;20496;-71
2024/01/06 05:00:57;;;;;;;10.77;7.40;;;;;;;;;;5043373;28;20352;-71
2024/01/06 05:03:24;;;;;;;9.50;7.13;;;;;;;;;;5043692;28;20050;-71
2024/01/06 05:05:50;;;;;;;11.13;6.95;;;;;;;;;;5043023;28;20053;-71
2024/01/06 05:08:18;;;;;;;9.82;7.53;;;;;;;;;;5042826;28;20053;-71
2024/01/06 05:10:44;;;;;;;8.98;7.00;;;;;;;;;;5042567;28;20061;-72
2024/01/06 05:13:15;;;;;;;10.75;7.68;;;;;;;;;;5043564;28;20053;-73
2024/01/06 05:15:41;;;;;;;11.52;7.07;;;;;;;;;;5042565;28;20098;-71
2024/01/06 05:18:07;;;;;;;11.68;7.72;;;;;;;;;;5043511;28;20057;-71
2024/01/06 05:20:34;;;;;;;10.35;7.35;;;;;;;;;;5043164;28;20056;-72
2024/01/06 05:23:01;;;;;;;12.73;7.88;;;;;;;;;;5042920;28;20714;-72
2024/01/06 05:25:27;;;;;;;12.93;7.95;;;;;;;;;;5042240;28;20527;-73
2024/01/06 05:27:53;;;;;;;12.55;8.40;;;;;;;;;;5042615;28;20208;-71
2024/01/06 05:30:20;;;;;;;14.82;8.52;;;;;;;;;;5042243;28;20045;-71
2024/01/06 05:32:46;;;;;;;12.98;8.43;;;;;;;;;;5043121;28;20057;-71
2024/01/06 05:35:13;;;;;;;11.98;8.38;;;;;;;;;;5043534;28;20503;-72
2024/01/06 05:37:40;;;;;;;10.95;8.07;;;;;;;;;;5042160;28;22273;-71
2024/01/06 05:40:07;;;;;;;11.95;7.93;;;;;;;;;;5041486;28;20049;-71
2024/01/06 05:42:33;;;;;;;11.13;8.80;;;;;;;;;;5042796;28;20052;-71
2024/01/06 05:45:00;;;;;;;12.65;8.73;;;;;;;;;;5043260;28;20495;-71
2024/01/06 05:47:26;;;;;;;12.30;9.57;;;;;;;;;;5044201;28;20057;-71
2024/01/06 05:49:53;;;;;;;14.38;9.30;;;;;;;;;;5042193;28;20054;-71
2024/01/06 05:52:19;;;;;;;14.20;9.90;;;;;;;;;;5035964;28;20523;-72
2024/01/06 05:54:45;;;;;;;14.07;9.15;;;;;;;;;;5045836;28;20085;-71
2024/01/06 05:57:12;;;;;;;15.43;9.88;;;;;;;;;;5045738;28;20075;-72
2024/01/06 05:59:39;;;;;;;12.10;9.13;;;;;;;;;;5045836;28;20057;-71
2024/01/06 06:02:05;;;;;;;12.95;8.63;;;;;;;;;;5046265;28;20057;-70
2024/01/06 06:04:32;;;;;;;13.07;9.68;;;;;;;;;;5045672;28;20065;-71
2024/01/06 06:06:58;;;;;;;14.65;9.75;;;;;;;;;;5046252;28;20049;-71
2024/01/06 06:09:28;;;;;;;12.70;8.63;;;;;;;;;;5045488;28;20057;-72
2024/01/06 06:11:55;;;;;;;14.05;8.88;;;;;;;;;;5046082;28;20061;-72
2024/01/06 06:14:21;;;;;;;16.63;9.88;;;;;;;;;;5045561;28;20079;-71
2024/01/06 06:16:51;;;;;;;17.17;10.35;;;;;;;;;;5046238;28;20535;-71
2024/01/06 06:19:18;;;;;;;13.55;8.43;;;;;;;;;;5046468;28;20061;-71
2024/01/06 06:21:45;;;;;;;17.67;10.38;;;;;;;;;;5046033;28;20050;-70
2024/01/06 06:24:13;;;;;;;14.75;9.93;;;;;;;;;;5046001;28;20050;-71
2024/01/06 06:26:39;;;;;;;13.82;9.57;;;;;;;;;;5044747;28;20111;-71
2024/01/06 06:29:07;;;;;;;17.33;9.45;;;;;;;;;;5045574;28;20096;-71
2024/01/06 06:31:34;;;;;;;11.85;8.98;;;;;;;;;;5045757;28;20471;-71
2024/01/06 06:34:00;;;;;;;15.82;9.90;;;;;;;;;;5045641;28;20439;-71
2024/01/06 06:36:32;;;;;;;16.77;10.15;;;;;;;;;;5043553;28;20053;-72
2024/01/06 06:38:59;;;;;;;14.90;9.07;;;;;;;;;;5044733;28;20140;-70
2024/01/06 06:41:25;;;;;;;14.57;8.70;;;;;;;;;;5045962;28;20050;-71
2024/01/06 06:43:52;;;;;;;13.48;9.18;;;;;;;;;;5045812;28;20431;-71
2024/01/06 06:46:18;;;;;;;15.63;9.50;;;;;;;;;;5044924;28;20057;-71
2024/01/06 06:48:45;;;;;;;15.23;9.20;;;;;;;;;;5041865;28;20161;-71
2024/01/06 06:51:12;;;;;;;15.30;8.30;;;;;;;;;;5045936;28;20049;-72
2024/01/06 06:53:38;;;;;;;13.20;8.52;;;;;;;;;;5046464;28;20061;-70
2024/01/06 06:56:05;;;;;;;14.82;8.82;;;;;;;;;;5046572;28;20596;-71
2024/01/06 06:58:31;;;;;;;14.70;9.05;;;;;;;;;;5045710;28;20057;-71
2024/01/06 07:00:57;;;;;;;14.13;8.32;;;;;;;;;;5045277;28;20061;-72
2024/01/06 07:03:24;;;;;;;13.80;8.02;;;;;;;;;;5046172;28;20080;-72
2024/01/06 07:05:51;;;;;;;12.13;8.13;;;;;;;;;;5045857;28;20053;-72
2024/01/06 07:08:18;;;;;;;11.52;7.32;;;;;;;;;;5045072;28;20053;-71
2024/01/06 07:10:44;;;;;;;12.27;7.28;;;;;;;;;;5043679;28;20054;-72
2024/01/06 07:13:11;;;;;;;18.80;7.78;;;;;;;;;;5026063;28;20064;-72
2024/01/06 07:15:37;;;;;;;11.50;8.07;;;;;;;;;;5034861;28;20140;-72
2024/01/06 07:18:04;;;;;;;9.02;6.20;;;;;;;;;;5043977;28;20053;-73
2024/01/06 07:20:30;;;;;;;10.95;7.88;;;;;;;;;;5044262;28;20060;-72
2024/01/06 07:22:56;;;;;;;10.38;6.15;;;;;;;;;;5045522;28;20120;-72
2024/01/06 07:25:23;;;;;;;9.05;6.63;;;;;;;;;;5044319;28;20326;-71
2024/01/06 07:27:49;;;;;;;13.98;6.50;;;;;;;;;;5043464;28;20061;-72
2024/01/06 07:30:20;;;;;;;8.50;7.15;;;;;;;;;;5045014;28;20124;-72
2024/01/06 07:32:47;;;;;;;8.82;6.22;;;;;;;;;;5045257;28;20053;-73
2024/01/06 07:35:14;;;;;;;11.02;6.93;;;;;;;;;;5044076;28;20050;-71
2024/01/06 07:37:40;;;;;;;13.82;7.90;;;;;;;;;;5044664;28;20416;-71
2024/01/06 07:40:07;;;;;;;10.77;6.97;;;;;;;;;;5045260;28;20061;-71
2024/01/06 07:42:33;;;;;;;9.52;5.70;;;;;;;;;;5044820;28;20056;-72
2024/01/06 07:45:00;;;;;;;12.95;7.40;;;;;;;;;;5045315;28;20444;-71
2024/01/06 07:47:26;;;;;;;10.18;7.57;;;;;;;;;;5044183;28;20128;-72
2024/01/06 07:49:53;;;;;;;10.38;7.43;;;;;;;;;;5034175;28;20136;-71
2024/01/06 07:52:19;;;;;;;10.65;7.72;;;;;;;;;;5044951;28;20056;-71
2024/01/06 07:54:46;;;;;;;11.90;8.07;;;;;;;;;;5044453;28;20144;-72
2024/01/06 07:57:13;;;;;;;12.35;8.05;;;;;;;;;;5044042;28;20041;-72
2024/01/06 07:59:39;;;;;;;13.95;8.07;;;;;;;;;;5044878;28;20057;-73
2024/01/06 08:02:06;;;;;;;13.52;8.15;;;;;;;;;;5044380;28;20057;-72
2024/01/06 08:04:33;;;;;;;13.05;8.45;;;;;;;;;;5043957;28;20115;-72
2024/01/06 08:07:00;;;;;;;12.15;8.60;;;;;;;;;;5044423;28;20503;-72
2024/01/06 08:09:26;;;;;;;10.85;8.30;;;;;;;;;;5043410;28;20053;-72
2024/01/06 08:11:53;;;;;;;10.48;8.77;;;;;;;;;;5044455;28;20115;-72
2024/01/06 08:14:19;;;;;;;11.80;8.45;;;;;;;;;;5044334;28;20523;-72
2024/01/06 08:16:46;;;;;;;11.05;7.82;;;;;;;;;;5044383;28;20049;-72
2024/01/06 08:19:13;;;;;;;12.15;7.82;;;;;;;;;;5043985;28;20128;-72
2024/01/06 08:21:39;;;;;;;11.85;8.25;;;;;;;;;;5043622;28;20583;-71
2024/01/06 08:24:06;;;;;;;12.20;8.25;;;;;;;;;;5044691;28;20131;-72
2024/01/06 08:26:32;;;;;;;10.85;7.28;;;;;;;;;;5044006;28;20053;-72
2024/01/06 08:28:59;;;;;;;10.23;7.63;;;;;;;;;;5044164;28;20116;-72
2024/01/06 08:31:25;;;;;;;14.45;7.88;;;;;;;;;;5042120;28;20060;-72
2024/01/06 08:33:52;;;;;;;10.80;7.50;;;;;;;;;;5043069;28;20057;-72
2024/01/06 08:36:18;;;;;;;15.07;8.05;;;;;;;;;;5043446;28;20064;-72
2024/01/06 08:38:45;;;;;;;12.20;7.45;;;;;;;;;;5042560;28;20076;-72
2024/01/06 08:41:11;;;;;;;11.18;6.93;;;;;;;;;;5043895;28;20502;-72
2024/01/06 08:43:38;;;;;;;13.02;7.65;;;;;;;;;;5043321;28;20141;-72
2024/01/06 08:46:05;;;;;;;11.80;7.13;;;;;;;;;;5044035;28;20507;-71
2024/01/06 08:48:32;;;;;;;11.63;7.13;;;;;;;;;;5043414;28;20412;-72
2024/01/06 08:51:01;;;;;;;12.15;7.63;;;;;;;;;;5042034;28;20430;-72
2024/01/06 08:53:27;;;;;;;9.00;6.80;;;;;;;;;;5043056;28;20753;-71
2024/01/06 08:55:54;;;;;;;13.73;6.97;;;;;;;;;;5043273;28;20136;-72
2024/01/06 08:58:20;;;;;;;9.35;6.40;;;;;;;;;;5043704;28;20141;-72
2024/01/06 09:00:47;;;;;;;12.25;7.05;;;;;;;;;;5041453;28;20057;-72
2024/01/06 09:03:13;;;;;;;10.23;6.78;;;;;;;;;;5042195;28;20141;-73
2024/01/06 09:05:40;;;;;;;16.67;8.05;;;;;;;;;;5035840;28;20080;-73
2024/01/06 09:08:07;;;;;;;11.60;6.68;;;;;;;;;;5042428;28;20512;-72
2024/01/06 09:10:33;;;;;;;9.35;6.40;;;;;;;;;;5042684;28;20554;-72
2024/01/06 09:13:01;;;;;;;14.63;7.05;;;;;;;;;;5043481;28;20053;-72
2024/01/06 09:15:28;;;;;;;12.95;6.88;;;;;;;;;;5041624;28;20053;-72
2024/01/06 09:17:54;;;;;;;12.43;7.20;;;;;;;;;;5042921;28;20165;-72
2024/01/06 09:20:23;;;;;;;14.30;6.93;;;;;;;;;;5041995;28;20050;-72
2024/01/06 09:22:49;;;;;;;12.00;6.63;;;;;;;;;;5042590;28;20056;-72
2024/01/06 09:25:16;;;;;;;13.43;7.30;;;;;;;;;;5042759;28;20495;-71
2024/01/06 09:27:42;;;;;;;9.73;6.78;;;;;;;;;;5042768;28;20619;-72
2024/01/06 09:30:09;;;;;;;9.52;6.32;;;;;;;;;;5043050;28;20554;-72
2024/01/06 09:32:36;;;;;;;9.35;6.95;;;;;;;;;;5043254;28;20088;-72
2024/01/06 09:35:03;;;;;;;8.35;5.88;;;;;;;;;;5043063;28;20053;-71
2024/01/06 09:37:30;;;;;;;9.30;6.85;;;;;;;;;;5042788;28;20053;-72
2024/01/06 09:39:56;;;;;;;10.77;6.38;;;;;;;;;;5043673;28;20547;-72
2024/01/06 09:42:23;;;;;;;9.95;5.82;;;;;;;;;;5043015;28;20053;-72
2024/01/06 09:44:49;;;;;;;12.77;6.40;;;;;;;;;;5042970;28;20053;-72
2024/01/06 09:47:17;;;;;;;11.18;7.03;;;;;;;;;;5042887;28;20058;-72
2024/01/06 09:49:50;;;;;;;9.52;6.50;;;;;;;;;;5042831;28;20058;-72
2024/01/06 09:52:20;;;;;;;10.52;6.75;;;;;;;;;;5042365;28;20101;-72
2024/01/06 09:54:53;;;;;;;8.95;6.53;;;;;;;;;;5042671;28;20052;-72
2024/01/06 09:57:22;;;;;;;9.18;6.15;;;;;;;;;;5042948;28;20053;-72
2024/01/06 09:59:49;;;;;;;11.88;6.10;;;;;;;;;;5040820;28;20060;-72
2024/01/06 10:02:17;;;;;;;10.23;6.43;;;;;;;;;;5043083;28;20140;-72
2024/01/06 10:04:43;;;;;;;12.15;6.85;;;;;;;;;;5041906;28;20072;-72
2024/01/06 10:07:13;;;;;;;8.60;6.72;;;;;;;;;;5042792;28;20045;-71
2024/01/06 10:09:40;;;;;;;9.43;6.80;;;;;;;;;;5042821;28;20057;-72
2024/01/06 10:12:06;;;;;;;7.45;6.20;;;;;;;;;;5042883;28;20055;-72
2024/01/06 10:14:33;;;;;;;10.50;7.15;;;;;;;;;;5042049;28;20139;-72
2024/01/06 10:16:59;;;;;;;10.35;6.68;;;;;;;;;;5042104;28;20057;-71
2024/01/06 10:19:26;;;;;;;11.05;7.57;;;;;;;;;;5042640;28;20524;-72
2024/01/06 10:21:53;;;;;;;9.32;6.82;;;;;;;;;;5043223;28;20061;-72
2024/01/06 10:24:19;;;;;;;8.43;6.38;;;;;;;;;;5043129;28;20135;-71
2024/01/06 10:26:46;;;;;;;11.35;6.90;;;;;;;;;;5042327;28;20049;-71
2024/01/06 10:29:15;;;;;;;11.00;7.13;;;;;;;;;;5041588;28;20089;-72
2024/01/06 10:31:42;;;;;;;9.82;6.88;;;;;;;;;;5026809;28;20512;-72
2024/01/06 10:34:08;;;;;;;11.70;7.50;;;;;;;;;;5045309;28;20970;-72
2024/01/06 10:36:35;;;;;;;9.30;6.85;;;;;;;;;;5045834;28;20529;-72
2024/01/06 10:39:03;;;;;;;10.63;7.03;;;;;;;;;;5045784;28;20062;-71
2024/01/06 10:41:30;;;;;;;9.93;6.57;;;;;;;;;;5045386;28;20424;-72
2024/01/06 10:43:58;;;;;;;11.70;7.10;;;;;;;;;;5025724;28;20093;-72
2024/01/06 10:46:25;;;;;;;11.75;8.00;;;;;;;;;;5025881;28;20053;-71
2024/01/06 10:48:52;;;;;;;9.90;6.78;;;;;;;;;;5027851;28;20185;-72
2024/01/06 10:51:21;;;;;;;12.40;7.15;;;;;;;;;;5044962;28;20057;-72
2024/01/06 10:53:48;;;;;;;11.40;6.85;;;;;;;;;;5045077;28;20137;-71
2024/01/06 10:56:15;;;;;;;10.77;7.45;;;;;;;;;;5045760;28;20057;-71
2024/01/06 10:58:46;;;;;;;11.77;7.28;;;;;;;;;;5045567;28;20131;-71
2024/01/06 11:01:13;;;;;;;13.50;7.55;;;;;;;;;;5045661;28;20678;-72
2024/01/06 11:03:45;;;;;;;10.00;7.20;;;;;;;;;;5045108;28;20136;-71
2024/01/06 11:06:12;;;;;;;11.75;7.43;;;;;;;;;;5044570;28;20057;-72
2024/01/06 11:09:11;;;;;;;10.82;7.40;;;;;;;;;;5043217;28;20148;-72
2024/01/06 11:11:39;;;;;;;14.23;8.15;;;;;;;;;;5021032;28;20512;-72
2024/01/06 11:14:25;;;;;;;8.40;6.55;;;;;;;;;;5043675;28;20922;-72
2024/01/06 11:16:53;;;;;;;11.18;7.47;;;;;;;;;;5044289;28;20057;-72
2024/01/06 11:19:34;;;;;;;11.13;7.28;;;;;;;;;;5045036;28;20539;-71
2024/01/06 11:22:22;;;;;;;10.70;7.03;;;;;;;;;;5043153;28;20123;-72
2024/01/06 11:24:49;;;;;;;10.32;7.13;;;;;;;;;;5044654;28;20060;-71
2024/01/06 11:27:20;;;;;;;11.75;7.43;;;;;;;;;;5044871;28;20050;-72
2024/01/06 11:29:47;;;;;;;11.38;7.75;;;;;;;;;;5045458;28;20574;-71
2024/01/06 11:32:20;;;;;;;9.48;7.25;;;;;;;;;;5045490;28;20056;-71
2024/01/06 11:34:48;;;;;;;10.23;7.10;;;;;;;;;;5044749;28;20045;-71
2024/01/06 11:37:17;;;;;;;13.10;7.35;;;;;;;;;;5045029;28;20498;-71
2024/01/06 11:39:44;;;;;;;9.90;7.47;;;;;;;;;;5044338;28;20085;-72
2024/01/06 11:42:11;;;;;;;11.75;7.30;;;;;;;;;;5040714;28;20401;-72
2024/01/06 11:44:43;;;;;;;12.43;7.20;;;;;;;;;;5044263;28;20994;-72
2024/01/06 11:47:11;;;;;;;10.90;7.05;;;;;;;;;;5044961;28;20053;-72
2024/01/06 11:49:38;;;;;;;14.38;6.82;;;;;;;;;;5044405;28;20116;-72
2024/01/06 11:52:05;;;;;;;8.95;6.60;;;;;;;;;;5044514;28;20161;-72
2024/01/06 11:54:32;;;;;;;11.27;6.32;;;;;;;;;;5044085;28;20686;-71
2024/01/06 11:56:58;;;;;;;7.45;6.20;;;;;;;;;;5043858;28;20057;-71
2024/01/06 11:59:24;;;;;;;8.13;5.68;;;;;;;;;;5043989;28;20057;-72
2024/01/06 12:01:51;;;;;;;8.40;5.65;;;;;;;;;;5044562;28;20051;-71
2024/01/06 12:04:18;;;;;;;8.85;5.85;;;;;;;;;;5042457;28;20053;-72
2024/01/06 12:06:45;;;;;;;10.13;5.93;;;;;;;;;;5044348;28;20057;-72
2024/01/06 12:09:14;;;;;;;9.05;5.68;;;;;;;;;;5044444;28;20137;-71
2024/01/06 12:11:41;;;;;;;8.20;6.15;;;;;;;;;;5043293;28;20060;-71
2024/01/06 12:14:08;;;;;;;7.72;5.35;;;;;;;;;;5044097;28;20436;-71
2024/01/06 12:16:34;;;;;;;8.38;6.00;;;;;;;;;;5044232;28;20057;-71
2024/01/06 12:19:02;;;;;;;9.73;6.78;;;;;;;;;;5043826;28;20081;-71
2024/01/06 12:21:29;;;;;;;8.73;6.35;;;;;;;;;;5043673;28;20470;-72
2024/01/06 12:24:17;;;;;;;7.30;6.03;;;;;;;;;;5042911;28;20057;-71
2024/01/06 12:26:44;;;;;;;9.45;6.78;;;;;;;;;;5043595;28;20104;-71
2024/01/06 12:29:11;;;;;;;9.00;6.70;;;;;;;;;;5043925;28;20052;-72
2024/01/06 12:31:38;;;;;;;9.48;6.70;;;;;;;;;;5043178;28;20127;-71
2024/01/06 12:34:09;;;;;;;10.98;6.72;;;;;;;;;;5043780;28;20049;-72
2024/01/06 12:36:40;;;;;;;10.40;6.47;;;;;;;;;;5042497;28;20503;-71
2024/01/06 12:39:10;;;;;;;9.80;7.38;;;;;;;;;;5043260;28;20061;-72
2024/01/06 12:41:38;;;;;;;10.00;6.85;;;;;;;;;;5043942;28;20053;-72
2024/01/06 12:44:04;;;;;;;11.85;7.68;;;;;;;;;;5043678;28;20050;-72
2024/01/06 12:46:30;;;;;;;10.88;7.20;;;;;;;;;;5042859;28;20061;-71
2024/01/06 12:48:57;;;;;;;11.52;8.00;;;;;;;;;;5043896;28;20666;-72
2024/01/06 12:51:23;;;;;;;12.55;7.45;;;;;;;;;;5043970;28;20057;-72
2024/01/06 12:53:50;;;;;;;11.25;7.25;;;;;;;;;;5043680;28;20539;-72
2024/01/06 12:56:17;;;;;;;11.20;7.22;;;;;;;;;;5043508;28;20468;-72
2024/01/06 12:58:43;;;;;;;12.63;7.47;;;;;;;;;;5043230;28;20057;-72
2024/01/06 13:01:10;;;;;;;10.90;6.93;;;;;;;;;;5043487;28;20420;-72
2024/01/06 13:03:36;;;;;;;11.50;7.88;;;;;;;;;;5043599;28;20124;-72
2024/01/06 13:06:03;;;;;;;11.15;8.05;;;;;;;;;;5038555;28;20058;-72
2024/01/06 13:08:29;;;;;;;13.70;7.53;;;;;;;;;;5023319;28;20608;-72
2024/01/06 13:10:56;;;;;;;12.73;9.07;;;;;;;;;;5023695;28;20054;-72
2024/01/06 13:13:22;;;;;;;14.90;7.07;;;;;;;;;;5023602;28;21031;-71
2024/01/06 13:15:49;;;;;;;13.52;7.13;;;;;;;;;;5023375;28;20073;-71
2024/01/06 13:18:18;;;;;;;11.93;8.77;;;;;;;;;;5023660;28;20149;-72
2024/01/06 13:20:45;;;;;;;14.45;7.47;;;;;;;;;;5023797;28;20054;-71
2024/01/06 13:23:12;;;;;;;17.65;8.93;;;;;;;;;;5031626;28;20053;-71
2024/01/06 13:25:41;;;;;;;12.10;8.15;;;;;;;;;;5042680;28;20436;-71
2024/01/06 13:28:07;;;;;;;13.15;7.88;;;;;;;;;;5041162;28;20111;-72
2024/01/06 13:30:34;;;;;;;10.50;7.13;;;;;;;;;;5042349;28;20060;-71
2024/01/06 13:33:00;;;;;;;11.18;7.63;;;;;;;;;;5044068;28;20060;-72
2024/01/06 13:35:28;;;;;;;14.35;8.73;;;;;;;;;;5041852;28;20054;-72
2024/01/06 13:37:55;;;;;;;11.43;7.57;;;;;;;;;;5042619;28;20064;-72
2024/01/06 13:40:22;;;;;;;14.18;7.90;;;;;;;;;;5043032;28;20053;-72
2024/01/06 13:42:49;;;;;;;11.02;7.93;;;;;;;;;;5043023;28;20127;-72
2024/01/06 13:45:15;;;;;;;13.57;7.63;;;;;;;;;;5043307;28;20065;-72
2024/01/06 13:47:44;;;;;;;14.75;7.95;;;;;;;;;;5042734;28;20053;-72
2024/01/06 13:50:11;;;;;;;10.25;7.85;;;;;;;;;;5043628;28;20053;-72
2024/01/06 13:52:38;;;;;;;11.63;8.38;;;;;;;;;;5043696;28;20060;-72
2024/01/06 13:55:05;;;;;;;9.75;7.53;;;;;;;;;;5043714;28;20041;-72
2024/01/06 13:57:32;;;;;;;12.50;8.15;;;;;;;;;;5042621;28;20057;-72
2024/01/06 13:59:58;;;;;;;12.07;7.70;;;;;;;;;;5042749;28;20056;-72
2024/01/06 14:02:25;;;;;;;13.27;7.82;;;;;;;;;;5043240;28;20057;-72
2024/01/06 14:04:51;;;;;;;13.95;8.77;;;;;;;;;;5043320;28;20136;-72
2024/01/06 14:07:19;;;;;;;15.30;8.85;;;;;;;;;;5040841;28;20052;-72
2024/01/06 14:09:46;;;;;;;11.68;7.95;;;;;;;;;;5046154;28;20128;-72
2024/01/06 14:12:13;;;;;;;11.13;7.38;;;;;;;;;;5046716;28;20057;-72
2024/01/06 14:14:41;;;;;;;10.60;7.75;;;;;;;;;;5030059;28;20520;-72
2024/01/06 14:17:08;;;;;;;10.57;8.30;;;;;;;;;;5027313;28;20091;-71
2024/01/06 14:19:34;;;;;;;13.95;8.05;;;;;;;;;;5026158;28;20057;-72
2024/01/06 14:22:04;;;;;;;13.82;8.25;;;;;;;;;;5025505;28;20116;-71
2024/01/06 14:24:30;;;;;;;11.32;7.57;;;;;;;;;;5025658;28;20053;-72
2024/01/06 14:26:57;;;;;;;13.30;7.72;;;;;;;;;;5026384;28;20046;-71
2024/01/06 14:29:24;;;;;;;10.82;8.05;;;;;;;;;;5026592;28;20585;-72
2024/01/06 14:31:50;;;;;;;14.70;8.02;;;;;;;;;;5031898;28;20108;-72